createdAt,value
2016-05-24T00:00:07.123Z,1014.98
2016-05-24T00:01:07.140Z,1014.97
2016-05-24T00:02:07.176Z,1014.96
2016-05-24T00:03:07.193Z,1014.95
2016-05-24T00:04:07.212Z,1014.94
2016-05-24T00:05:07.245Z,1014.9
2016-05-24T00:06:07.264Z,1014.96
2016-05-24T00:07:07.281Z,1014.96
2016-05-24T00:08:07.316Z,1014.96
2016-05-24T00:09:07.334Z,1014.96
2016-05-24T00:10:07.368Z,1014.94
2016-05-24T00:11:07.386Z,1014.94
2016-05-24T00:12:07.405Z,1014.97
2016-05-24T00:13:07.439Z,1014.96
2016-05-24T00:14:07.457Z,1014.95
2016-05-24T00:15:07.475Z,1014.92
2016-05-24T00:16:07.509Z,1014.96
2016-05-24T00:17:07.528Z,1014.97
2016-05-24T00:18:07.561Z,1014.9
2016-05-24T00:19:07.580Z,1014.95
2016-05-24T00:20:07.599Z,1015.01
2016-05-24T00:21:07.633Z,1015
2016-05-24T00:22:07.650Z,1015.03
2016-05-24T00:23:07.669Z,1015.05
2016-05-24T00:24:07.702Z,1015.06
2016-05-24T00:25:07.721Z,1015.07
2016-05-24T00:26:07.739Z,1015.05
2016-05-24T00:27:07.774Z,1015.09
2016-05-24T00:28:07.791Z,1015.07
2016-05-24T00:29:07.826Z,1015.06
2016-05-24T00:30:08.062Z,1015.07
2016-05-24T00:31:07.879Z,1015.09
2016-05-24T00:32:07.896Z,1015.08
2016-05-24T00:33:07.915Z,1015.06
2016-05-24T00:34:07.948Z,1015.05
2016-05-24T00:35:07.967Z,1015.04
2016-05-24T00:36:07.984Z,1015.04
2016-05-24T00:37:08.019Z,1015.05
2016-05-24T00:38:08.037Z,1015
2016-05-24T00:39:08.071Z,1015
2016-05-24T00:40:08.090Z,1015.04
2016-05-24T00:41:08.108Z,1015.01
2016-05-24T00:42:08.142Z,1015.03
2016-05-24T00:43:08.160Z,1015.04
2016-05-24T00:44:08.178Z,1015.05
2016-05-24T00:45:08.525Z,1015.08
2016-05-24T00:46:08.231Z,1015.09
2016-05-24T00:47:08.264Z,1015.13
2016-05-24T00:48:08.283Z,1015.11
2016-05-24T00:49:08.317Z,1015.1
2016-05-24T00:50:08.336Z,1015.11
2016-05-24T00:51:08.353Z,1015.13
2016-05-24T00:52:08.372Z,1015.11
2016-05-24T00:53:08.405Z,1015.1
2016-05-24T00:54:08.424Z,1015.14
2016-05-24T00:55:08.458Z,1015.1
2016-05-24T00:56:08.477Z,1015.1
2016-05-24T00:57:08.494Z,1015.1
2016-05-24T00:58:08.529Z,1015.09
2016-05-24T00:59:08.546Z,1015.14
2016-05-24T01:00:08.576Z,1015.13
2016-05-24T01:01:08.638Z,1015.13
2016-05-24T01:02:08.685Z,1015.13
2016-05-24T01:03:08.748Z,1015.11
2016-05-24T01:04:08.794Z,1015.1
2016-05-24T01:05:08.833Z,1015.1
2016-05-24T01:06:08.878Z,1015.1
2016-05-24T01:07:08.905Z,1015.1
2016-05-24T01:08:08.935Z,1015.12
2016-05-24T01:09:08.979Z,1015.13
2016-05-24T01:10:09.005Z,1015.09
2016-05-24T01:11:09.042Z,1015.1
2016-05-24T01:12:09.065Z,1015.1
2016-05-24T01:13:09.086Z,1015.06
2016-05-24T01:14:09.124Z,1015.04
2016-05-24T01:15:09.146Z,1015.08
2016-05-24T01:16:09.180Z,1015.07
2016-05-24T01:17:09.200Z,1015.13
2016-05-24T01:18:09.220Z,1015.12
2016-05-24T01:19:09.254Z,1015.12
2016-05-24T01:20:09.273Z,1015.12
2016-05-24T01:21:09.309Z,1015.1
2016-05-24T01:22:09.326Z,1015.08
2016-05-24T01:23:09.346Z,1015.08
2016-05-24T01:24:09.379Z,1015.07
2016-05-24T01:25:09.399Z,1015.02
2016-05-24T01:26:09.416Z,1015.06
2016-05-24T01:27:09.452Z,1015.05
2016-05-24T01:28:09.469Z,1015
2016-05-24T01:29:09.505Z,1015.01
2016-05-24T01:30:09.538Z,1014.97
2016-05-24T01:31:09.542Z,1015
2016-05-24T01:32:09.576Z,1014.98
2016-05-24T01:33:09.594Z,1014.94
2016-05-24T01:34:09.611Z,1014.99
2016-05-24T01:35:09.646Z,1015.02
2016-05-24T01:36:09.663Z,1014.96
2016-05-24T01:37:09.683Z,1014.97
2016-05-24T01:38:09.717Z,1014.93
2016-05-24T01:39:09.735Z,1014.99
2016-05-24T01:40:09.769Z,1014.99
2016-05-24T01:41:09.787Z,1014.99
2016-05-24T01:42:09.805Z,1014.94
2016-05-24T01:43:09.838Z,1014.95
2016-05-24T01:44:09.858Z,1014.96
2016-05-24T01:45:09.876Z,1015
2016-05-24T01:46:09.910Z,1014.98
2016-05-24T01:47:09.928Z,1015.01
2016-05-24T01:48:09.962Z,1014.95
2016-05-24T01:49:09.980Z,1014.91
2016-05-24T01:50:09.999Z,1014.93
2016-05-24T01:51:10.032Z,1014.93
2016-05-24T01:52:10.051Z,1014.91
2016-05-24T01:53:10.084Z,1014.94
2016-05-24T01:54:10.103Z,1014.9
2016-05-24T01:55:10.121Z,1014.99
2016-05-24T01:56:10.156Z,1014.95
2016-05-24T01:57:10.173Z,1015
2016-05-24T01:58:10.192Z,1014.99
2016-05-24T01:59:10.226Z,1014.97
2016-05-24T02:00:10.245Z,1014.95
2016-05-24T02:01:10.294Z,1014.94
2016-05-24T02:02:10.297Z,1014.95
2016-05-24T02:03:10.314Z,1014.96
2016-05-24T02:04:10.349Z,1014.91
2016-05-24T02:05:10.366Z,1014.89
2016-05-24T02:06:10.401Z,1014.89
2016-05-24T02:07:10.420Z,1014.85
2016-05-24T02:08:10.438Z,1014.88
2016-05-24T02:09:10.471Z,1014.84
2016-05-24T02:10:10.490Z,1014.89
2016-05-24T02:11:10.508Z,1014.91
2016-05-24T02:12:10.527Z,1014.93
2016-05-24T02:13:10.561Z,1014.9
2016-05-24T02:14:10.579Z,1014.94
2016-05-24T02:15:10.613Z,1014.91
2016-05-24T02:16:10.646Z,1014.94
2016-05-24T02:17:10.649Z,1014.9
2016-05-24T02:18:10.683Z,1014.96
2016-05-24T02:19:10.701Z,1014.97
2016-05-24T02:20:10.736Z,1015.02
2016-05-24T02:21:10.754Z,1015.03
2016-05-24T02:22:10.772Z,1015
2016-05-24T02:23:10.806Z,1015.01
2016-05-24T02:24:10.840Z,1015.01
2016-05-24T02:25:10.843Z,1015.04
2016-05-24T02:26:10.876Z,1015.04
2016-05-24T02:27:10.895Z,1015.05
2016-05-24T02:28:10.929Z,1015.01
2016-05-24T02:29:10.948Z,1015.06
2016-05-24T02:30:10.965Z,1015.08
2016-05-24T02:31:11.000Z,1015.11
2016-05-24T02:32:11.017Z,1015.1
2016-05-24T02:33:11.036Z,1015.11
2016-05-24T02:34:11.069Z,1015.04
2016-05-24T02:35:11.089Z,1015.08
2016-05-24T02:36:11.122Z,1015.12
2016-05-24T02:37:11.141Z,1015.08
2016-05-24T02:38:11.158Z,1015.11
2016-05-24T02:39:11.193Z,1015.1
2016-05-24T02:40:11.211Z,1015.09
2016-05-24T02:41:11.230Z,1015.13
2016-05-24T02:42:11.264Z,1015.11
2016-05-24T02:43:11.297Z,1015.12
2016-05-24T02:44:11.299Z,1015.16
2016-05-24T02:45:11.334Z,1015.13
2016-05-24T02:46:11.352Z,1015.06
2016-05-24T02:47:11.386Z,1015.12
2016-05-24T02:48:11.405Z,1015.1
2016-05-24T02:49:11.423Z,1015.12
2016-05-24T02:50:11.519Z,1015.11
2016-05-24T02:51:11.475Z,1015.09
2016-05-24T02:52:11.509Z,1015.08
2016-05-24T02:53:11.527Z,1015.1
2016-05-24T02:54:11.546Z,1015.09
2016-05-24T02:55:11.579Z,1015.08
2016-05-24T02:56:11.598Z,1015.09
2016-05-24T02:57:11.617Z,1015.05
2016-05-24T02:58:11.651Z,1015.01
2016-05-24T02:59:11.668Z,1015.05
2016-05-24T03:00:11.687Z,1015.07
2016-05-24T03:01:11.720Z,1015.1
2016-05-24T03:02:11.739Z,1015.04
2016-05-24T03:03:11.758Z,1015.09
2016-05-24T03:04:11.792Z,1015.04
2016-05-24T03:05:11.825Z,1015.06
2016-05-24T03:06:11.844Z,1015.05
2016-05-24T03:07:11.862Z,1015.06
2016-05-24T03:08:11.880Z,1015.03
2016-05-24T03:09:11.914Z,1015.04
2016-05-24T03:10:11.933Z,1015.02
2016-05-24T03:11:11.966Z,1015.01
2016-05-24T03:12:11.985Z,1015.01
2016-05-24T03:13:12.002Z,1015.02
2016-05-24T03:14:12.037Z,1015.08
2016-05-24T03:15:12.352Z,1015.06
2016-05-24T03:16:12.074Z,1015.03
2016-05-24T03:17:12.108Z,1015.08
2016-05-24T03:18:12.126Z,1015.13
2016-05-24T03:19:12.143Z,1015.14
2016-05-24T03:20:12.193Z,1015.14
2016-05-24T03:21:12.196Z,1015.13
2016-05-24T03:22:12.230Z,1015.14
2016-05-24T03:23:12.249Z,1015.17
2016-05-24T03:24:12.267Z,1015.16
2016-05-24T03:25:12.301Z,1015.17
2016-05-24T03:26:12.320Z,1015.21
2016-05-24T03:27:12.337Z,1015.19
2016-05-24T03:28:12.371Z,1015.19
2016-05-24T03:29:12.390Z,1015.16
2016-05-24T03:30:12.455Z,1015.21
2016-05-24T03:31:12.442Z,1015.26
2016-05-24T03:32:12.476Z,1015.2
2016-05-24T03:33:12.494Z,1015.21
2016-05-24T03:34:12.512Z,1015.23
2016-05-24T03:35:12.531Z,1015.18
2016-05-24T03:36:12.564Z,1015.22
2016-05-24T03:37:12.584Z,1015.2
2016-05-24T03:38:12.602Z,1015.18
2016-05-24T03:39:12.636Z,1015.19
2016-05-24T03:40:12.653Z,1015.19
2016-05-24T03:41:12.672Z,1015.2
2016-05-24T03:42:12.705Z,1015.21
2016-05-24T03:43:12.725Z,1015.2
2016-05-24T03:44:12.758Z,1015.21
2016-05-24T03:45:12.886Z,1015.18
2016-05-24T03:46:12.794Z,1015.19
2016-05-24T03:47:12.829Z,1015.2
2016-05-24T03:48:12.846Z,1015.18
2016-05-24T03:49:12.866Z,1015.15
2016-05-24T03:50:12.899Z,1015.17
2016-05-24T03:51:12.918Z,1015.16
2016-05-24T03:52:12.935Z,1015.15
2016-05-24T03:53:12.971Z,1015.16
2016-05-24T03:54:12.988Z,1015.14
2016-05-24T03:55:13.023Z,1015.19
2016-05-24T03:56:13.040Z,1015.1
2016-05-24T03:57:13.059Z,1015.11
2016-05-24T03:58:13.093Z,1015.12
2016-05-24T03:59:13.111Z,1015.17
2016-05-24T04:00:13.129Z,1015.19
2016-05-24T04:01:13.164Z,1015.17
2016-05-24T04:02:13.181Z,1015.2
2016-05-24T04:03:13.200Z,1015.23
2016-05-24T04:04:13.234Z,1015.23
2016-05-24T04:05:13.253Z,1015.25
2016-05-24T04:06:13.286Z,1015.19
2016-05-24T04:07:13.305Z,1015.23
2016-05-24T04:08:13.322Z,1015.21
2016-05-24T04:09:13.356Z,1015.18
2016-05-24T04:10:13.375Z,1015.17
2016-05-24T04:11:13.394Z,1015.18
2016-05-24T04:12:13.427Z,1015.14
2016-05-24T04:13:13.446Z,1015.14
2016-05-24T04:14:13.463Z,1015.18
2016-05-24T04:15:13.513Z,1015.14
2016-05-24T04:16:13.517Z,1015.16
2016-05-24T04:17:13.550Z,1015.17
2016-05-24T04:18:13.569Z,1015.17
2016-05-24T04:19:13.587Z,1015.16
2016-05-24T04:20:13.620Z,1015.16
2016-05-24T04:21:13.639Z,1015.15
2016-05-24T04:22:13.657Z,1015.17
2016-05-24T04:23:13.691Z,1015.11
2016-05-24T04:24:13.710Z,1015.13
2016-05-24T04:25:13.728Z,1015.13
2016-05-24T04:26:13.762Z,1015.14
2016-05-24T04:27:13.779Z,1015.12
2016-05-24T04:28:13.815Z,1015.15
2016-05-24T04:29:13.832Z,1015.13
2016-05-24T04:30:13.851Z,1015.11
2016-05-24T04:31:13.884Z,1015.17
2016-05-24T04:32:13.903Z,1015.14
2016-05-24T04:33:13.921Z,1015.14
2016-05-24T04:34:13.956Z,1015.15
2016-05-24T04:35:13.973Z,1015.2
2016-05-24T04:36:13.992Z,1015.2
2016-05-24T04:37:14.025Z,1015.2
2016-05-24T04:38:14.044Z,1015.25
2016-05-24T04:39:14.062Z,1015.23
2016-05-24T04:40:14.097Z,1015.2
2016-05-24T04:41:14.114Z,1015.26
2016-05-24T04:42:14.149Z,1015.24
2016-05-24T04:43:14.166Z,1015.25
2016-05-24T04:44:14.186Z,1015.27
2016-05-24T04:45:14.219Z,1015.24
2016-05-24T04:46:14.238Z,1015.26
2016-05-24T04:47:14.255Z,1015.28
2016-05-24T04:48:14.290Z,1015.26
2016-05-24T04:49:14.307Z,1015.24
2016-05-24T04:50:14.327Z,1015.28
2016-05-24T04:51:14.361Z,1015.3
2016-05-24T04:52:14.379Z,1015.25
2016-05-24T04:53:14.396Z,1015.29
2016-05-24T04:54:14.431Z,1015.3
2016-05-24T04:55:14.449Z,1015.29
2016-05-24T04:56:14.483Z,1015.3
2016-05-24T04:57:14.502Z,1015.29
2016-05-24T04:58:14.535Z,1015.24
2016-05-24T04:59:14.537Z,1015.27
2016-05-24T05:00:14.573Z,1015.25
2016-05-24T05:01:14.590Z,1015.24
2016-05-24T05:02:14.624Z,1015.25
2016-05-24T05:03:14.643Z,1015.22
2016-05-24T05:04:14.661Z,1015.29
2016-05-24T05:05:14.695Z,1015.28
2016-05-24T05:06:14.713Z,1015.24
2016-05-24T05:07:14.747Z,1015.29
2016-05-24T05:08:14.765Z,1015.33
2016-05-24T05:09:14.784Z,1015.36
2016-05-24T05:10:14.817Z,1015.35
2016-05-24T05:11:14.836Z,1015.37
2016-05-24T05:12:14.855Z,1015.34
2016-05-24T05:13:14.889Z,1015.34
2016-05-24T05:14:14.906Z,1015.33
2016-05-24T05:15:14.941Z,1015.39
2016-05-24T05:16:14.958Z,1015.31
2016-05-24T05:17:14.977Z,1015.33
2016-05-24T05:18:15.011Z,1015.3
2016-05-24T05:19:15.030Z,1015.32
2016-05-24T05:20:15.047Z,1015.26
2016-05-24T05:21:15.082Z,1015.31
2016-05-24T05:22:15.100Z,1015.28
2016-05-24T05:23:15.135Z,1015.3
2016-05-24T05:24:15.151Z,1015.27
2016-05-24T05:25:15.171Z,1015.27
2016-05-24T05:26:15.205Z,1015.28
2016-05-24T05:27:15.223Z,1015.28
2016-05-24T05:28:15.256Z,1015.25
2016-05-24T05:29:15.275Z,1015.3
2016-05-24T05:30:15.293Z,1015.31
2016-05-24T05:31:15.327Z,1015.27
2016-05-24T05:32:15.345Z,1015.3
2016-05-24T05:33:15.380Z,1015.3
2016-05-24T05:34:15.398Z,1015.35
2016-05-24T05:35:15.416Z,1015.28
2016-05-24T05:36:15.451Z,1015.29
2016-05-24T05:37:15.468Z,1015.32
2016-05-24T05:38:15.502Z,1015.29
2016-05-24T05:39:15.520Z,1015.32
2016-05-24T05:40:15.539Z,1015.28
2016-05-24T05:41:15.573Z,1015.29
2016-05-24T05:42:15.606Z,1015.27
2016-05-24T05:43:15.625Z,1015.26
2016-05-24T05:44:15.644Z,1015.26
2016-05-24T05:45:15.849Z,1015.22
2016-05-24T05:46:15.696Z,1015.22
2016-05-24T05:47:15.713Z,1015.2
2016-05-24T05:48:15.747Z,1015.17
2016-05-24T05:49:15.767Z,1015.18
2016-05-24T05:50:15.800Z,1015.24
2016-05-24T05:51:15.819Z,1015.2
2016-05-24T05:52:15.852Z,1015.21
2016-05-24T05:53:15.871Z,1015.18
2016-05-24T05:54:15.904Z,1015.23
2016-05-24T05:55:15.923Z,1015.25
2016-05-24T05:56:15.941Z,1015.24
2016-05-24T05:57:15.976Z,1015.27
2016-05-24T05:58:15.993Z,1015.29
2016-05-24T05:59:16.027Z,1015.25
2016-05-24T06:00:16.046Z,1015.26
2016-05-24T06:01:16.079Z,1015.24
2016-05-24T06:02:16.098Z,1015.27
2016-05-24T06:03:16.131Z,1015.29
2016-05-24T06:04:16.151Z,1015.24
2016-05-24T06:05:16.184Z,1015.3
2016-05-24T06:06:16.203Z,1015.29
2016-05-24T06:07:16.236Z,1015.3
2016-05-24T06:08:16.255Z,1015.27
2016-05-24T06:09:16.272Z,1015.26
2016-05-24T06:10:16.306Z,1015.23
2016-05-24T06:11:16.560Z,1015.22
2016-05-24T06:12:16.357Z,1015.2
2016-05-24T06:13:19.283Z,1015.19
2016-05-24T06:14:16.490Z,1015.18
2016-05-24T06:15:16.428Z,1015.19
2016-05-24T06:16:16.963Z,1015.19
2016-05-24T06:17:16.479Z,1015.24
2016-05-24T06:18:16.513Z,1015.24
2016-05-24T06:19:16.532Z,1015.22
2016-05-24T06:20:16.566Z,1015.23
2016-05-24T06:21:16.584Z,1015.21
2016-05-24T06:22:16.618Z,1015.28
2016-05-24T06:23:16.636Z,1015.21
2016-05-24T06:24:16.670Z,1015.26
2016-05-24T06:25:16.688Z,1015.25
2016-05-24T06:26:16.707Z,1015.27
2016-05-24T06:27:16.741Z,1015.28
2016-05-24T06:28:16.759Z,1015.29
2016-05-24T06:29:16.793Z,1015.31
2016-05-24T06:30:16.812Z,1015.33
2016-05-24T06:31:16.845Z,1015.3
2016-05-24T06:32:16.863Z,1015.34
2016-05-24T06:33:16.898Z,1015.36
2016-05-24T06:34:16.916Z,1015.36
2016-05-24T06:35:16.950Z,1015.35
2016-05-24T06:36:16.968Z,1015.36
2016-05-24T06:37:17.002Z,1015.33
2016-05-24T06:38:17.036Z,1015.36
2016-05-24T06:39:17.054Z,1015.39
2016-05-24T06:40:17.073Z,1015.33
2016-05-24T06:41:17.107Z,1015.39
2016-05-24T06:42:17.125Z,1015.37
2016-05-24T06:43:17.158Z,1015.34
2016-05-24T06:44:17.177Z,1015.33
2016-05-24T06:45:17.211Z,1015.34
2016-05-24T06:46:17.230Z,1015.37
2016-05-24T06:47:17.264Z,1015.34
2016-05-24T06:48:17.281Z,1015.35
2016-05-24T06:49:17.316Z,1015.39
2016-05-24T06:50:17.334Z,1015.35
2016-05-24T06:51:17.369Z,1015.43
2016-05-24T06:52:17.386Z,1015.42
2016-05-24T06:53:17.420Z,1015.43
2016-05-24T06:54:17.438Z,1015.42
2016-05-24T06:55:17.472Z,1015.45
2016-05-24T06:56:17.491Z,1015.44
2016-05-24T06:57:17.602Z,1015.42
2016-05-24T06:58:17.574Z,1015.41
2016-05-24T06:59:17.561Z,1015.38
2016-05-24T07:00:18.018Z,1015.39
2016-05-24T07:01:17.646Z,1015.39
2016-05-24T07:02:17.648Z,1015.36
2016-05-24T07:03:17.666Z,1015.36
2016-05-24T07:04:17.699Z,1015.4
2016-05-24T07:05:17.718Z,1015.38
2016-05-24T07:06:17.752Z,1015.43
2016-05-24T07:07:17.770Z,1015.47
2016-05-24T07:08:17.804Z,1015.48
2016-05-24T07:09:17.823Z,1015.48
2016-05-24T07:10:17.857Z,1015.48
2016-05-24T07:11:17.875Z,1015.46
2016-05-24T07:12:17.909Z,1015.43
2016-05-24T07:13:17.943Z,1015.43
2016-05-24T07:14:17.962Z,1015.43
2016-05-24T07:15:18.401Z,1015.4
2016-05-24T07:16:18.013Z,1015.35
2016-05-24T07:17:18.094Z,1015.34
2016-05-24T07:18:18.066Z,1015.28
2016-05-24T07:19:18.083Z,1015.31
2016-05-24T07:20:18.117Z,1015.3
2016-05-24T07:21:18.136Z,1015.3
2016-05-24T07:22:18.170Z,1015.28
2016-05-24T07:23:18.188Z,1015.26
2016-05-24T07:24:18.222Z,1015.29
2016-05-24T07:25:18.241Z,1015.31
2016-05-24T07:26:18.275Z,1015.28
2016-05-24T07:27:18.340Z,1015.25
2016-05-24T07:28:18.311Z,1015.28
2016-05-24T07:29:18.346Z,1015.22
2016-05-24T07:30:18.519Z,1015.23
2016-05-24T07:31:18.397Z,1015.21
2016-05-24T07:32:18.415Z,1015.22
2016-05-24T07:33:18.449Z,1015.22
2016-05-24T07:34:18.468Z,1015.19
2016-05-24T07:35:18.518Z,1015.21
2016-05-24T07:36:18.520Z,1015.19
2016-05-24T07:37:18.585Z,1015.21
2016-05-24T07:38:18.573Z,1015.19
2016-05-24T07:39:18.607Z,1015.2
2016-05-24T07:40:18.625Z,1015.26
2016-05-24T07:41:18.659Z,1015.22
2016-05-24T07:42:18.676Z,1015.25
2016-05-24T07:43:18.711Z,1015.24
2016-05-24T07:44:18.729Z,1015.22
2016-05-24T07:45:18.763Z,1015.28
2016-05-24T07:46:18.798Z,1015.28
2016-05-24T07:47:18.815Z,1015.24
2016-05-24T07:48:18.833Z,1015.23
2016-05-24T07:49:18.868Z,1015.22
2016-05-24T07:50:19.277Z,1015.19
2016-05-24T07:51:18.920Z,1015.15
2016-05-24T07:52:18.939Z,1015.17
2016-05-24T07:53:18.972Z,1015.16
2016-05-24T07:54:18.991Z,1015.14
2016-05-24T07:55:20.461Z,1015.12
2016-05-24T07:56:19.058Z,1015.14
2016-05-24T07:57:19.077Z,1015.12
2016-05-24T07:58:19.095Z,1015.11
2016-05-24T07:59:19.129Z,1015.1
2016-05-24T08:00:19.757Z,1015.06
2016-05-24T08:01:19.212Z,1015.13
2016-05-24T08:02:19.199Z,1015.08
2016-05-24T08:03:19.233Z,1015.09
2016-05-24T08:04:19.252Z,1015.07
2016-05-24T08:05:20.427Z,1015.08
2016-05-24T08:06:19.304Z,1015.12
2016-05-24T08:07:19.338Z,1015.11
2016-05-24T08:08:19.356Z,1015.18
2016-05-24T08:09:19.390Z,1015.17
2016-05-24T08:10:19.502Z,1015.13
2016-05-24T08:11:19.443Z,1015.15
2016-05-24T08:12:19.461Z,1015.13
2016-05-24T08:13:19.495Z,1015.11
2016-05-24T08:14:19.529Z,1015.08
2016-05-24T08:15:20.609Z,1015.09
2016-05-24T08:16:19.565Z,1015.05
2016-05-24T08:17:19.600Z,1015.05
2016-05-24T08:18:19.618Z,1015.03
2016-05-24T08:19:19.651Z,1015.03
2016-05-24T08:20:19.950Z,1015.05
2016-05-24T08:21:19.703Z,1015.01
2016-05-24T08:22:19.739Z,1015.03
2016-05-24T08:23:19.756Z,1015.03
2016-05-24T08:24:19.775Z,1015.07
2016-05-24T08:25:19.809Z,1015.06
2016-05-24T08:26:19.842Z,1015.06
2016-05-24T08:27:19.860Z,1014.99
2016-05-24T08:28:19.879Z,1015.05
2016-05-24T08:29:19.913Z,1015.06
2016-05-24T08:30:19.931Z,1015.04
2016-05-24T08:31:19.965Z,1015.09
2016-05-24T08:32:20.108Z,1015.07
2016-05-24T08:33:20.018Z,1015.07
2016-05-24T08:34:20.035Z,1015.09
2016-05-24T08:35:20.069Z,1015.05
2016-05-24T08:36:20.088Z,1015.07
2016-05-24T08:37:20.122Z,1015.08
2016-05-24T08:38:20.140Z,1015.08
2016-05-24T08:39:20.174Z,1015.07
2016-05-24T08:40:20.192Z,1015.05
2016-05-24T08:41:20.257Z,1015.09
2016-05-24T08:42:20.245Z,1015.09
2016-05-24T08:43:20.279Z,1015.11
2016-05-24T08:44:20.298Z,1015.13
2016-05-24T08:45:21.440Z,1015.12
2016-05-24T08:46:20.349Z,1015.13
2016-05-24T08:47:20.383Z,1015.15
2016-05-24T08:48:20.417Z,1015.11
2016-05-24T08:49:20.435Z,1015.12
2016-05-24T08:50:20.500Z,1015.12
2016-05-24T08:51:20.488Z,1015.11
2016-05-24T08:52:20.506Z,1015.09
2016-05-24T08:53:20.539Z,1015.08
2016-05-24T08:54:20.574Z,1015.08
2016-05-24T08:55:21.311Z,1015.16
2016-05-24T08:56:20.610Z,1015.18
2016-05-24T08:57:20.645Z,1015.22
2016-05-24T08:58:20.678Z,1015.2
2016-05-24T08:59:20.697Z,1015.2
2016-05-24T09:00:23.386Z,1015.22
2016-05-24T09:01:20.749Z,1015.18
2016-05-24T09:02:20.783Z,1015.19
2016-05-24T09:03:20.801Z,1015.19
2016-05-24T09:04:20.836Z,1015.16
2016-05-24T09:05:20.869Z,1015.15
2016-05-24T09:06:20.887Z,1015.16
2016-05-24T09:07:20.905Z,1015.14
2016-05-24T09:08:20.940Z,1015.13
2016-05-24T09:09:20.958Z,1015.13
2016-05-24T09:10:21.179Z,1015.15
2016-05-24T09:11:21.026Z,1015.06
2016-05-24T09:12:21.044Z,1015.16
2016-05-24T09:13:21.063Z,1015.18
2016-05-24T09:14:21.096Z,1015.17
2016-05-24T09:15:21.115Z,1015.18
2016-05-24T09:16:21.149Z,1015.16
2016-05-24T09:17:21.167Z,1015.2
2016-05-24T09:18:21.201Z,1015.15
2016-05-24T09:19:21.234Z,1015.17
2016-05-24T09:20:21.940Z,1015.19
2016-05-24T09:21:21.272Z,1015.21
2016-05-24T09:22:21.306Z,1015.14
2016-05-24T09:23:21.323Z,1015.21
2016-05-24T09:24:21.358Z,1015.16
2016-05-24T09:25:21.595Z,1015.2
2016-05-24T09:26:21.411Z,1015.2
2016-05-24T09:27:21.444Z,1015.18
2016-05-24T09:28:21.461Z,1015.17
2016-05-24T09:29:21.481Z,1015.17
2016-05-24T09:30:23.264Z,1015.18
2016-05-24T09:31:21.549Z,1015.16
2016-05-24T09:32:21.567Z,1015.2
2016-05-24T09:33:21.600Z,1015.17
2016-05-24T09:34:21.635Z,1015.17
2016-05-24T09:35:21.653Z,1015.19
2016-05-24T09:36:21.671Z,1015.17
2016-05-24T09:37:21.704Z,1015.12
2016-05-24T09:38:21.802Z,1015.16
2016-05-24T09:39:21.757Z,1015.16
2016-05-24T09:40:21.776Z,1015.15
2016-05-24T09:41:21.810Z,1015.13
2016-05-24T09:42:21.828Z,1015.14
2016-05-24T09:43:21.862Z,1015.12
2016-05-24T09:44:21.880Z,1015.11
2016-05-24T09:45:21.914Z,1015.12
2016-05-24T09:46:21.932Z,1015.12
2016-05-24T09:47:21.966Z,1015.14
2016-05-24T09:48:21.985Z,1015.11
2016-05-24T09:49:22.019Z,1015.1
2016-05-24T09:50:22.270Z,1015.09
2016-05-24T09:51:22.071Z,1015.05
2016-05-24T09:52:22.089Z,1015.07
2016-05-24T09:53:22.123Z,1015.08
2016-05-24T09:54:22.157Z,1015.08
2016-05-24T09:55:26.331Z,1015.04
2016-05-24T09:56:22.194Z,1015.02
2016-05-24T09:57:22.228Z,1015.04
2016-05-24T09:58:22.246Z,1015.03
2016-05-24T09:59:22.280Z,1015.01
2016-05-24T10:00:23.767Z,1015.05
2016-05-24T10:01:22.333Z,1015.01
2016-05-24T10:02:22.366Z,1015.08
2016-05-24T10:03:22.447Z,1015.08
2016-05-24T10:04:22.419Z,1015.09
2016-05-24T10:05:22.436Z,1015.11
2016-05-24T10:06:22.470Z,1015.12
2016-05-24T10:07:22.502Z,1015.1
2016-05-24T10:08:22.559Z,1015.12
2016-05-24T10:09:22.598Z,1015.09
2016-05-24T10:10:22.654Z,1015.1
2016-05-24T10:11:22.695Z,1015.09
2016-05-24T10:12:22.835Z,1015.13
2016-05-24T10:13:22.768Z,1015.1
2016-05-24T10:14:22.904Z,1015.04
2016-05-24T10:15:23.383Z,1015.06
2016-05-24T10:16:22.879Z,1015.09
2016-05-24T10:17:22.902Z,1015.07
2016-05-24T10:18:22.939Z,1015.08
2016-05-24T10:19:22.975Z,1015.05
2016-05-24T10:20:22.996Z,1015.04
2016-05-24T10:21:23.033Z,1015.09
2016-05-24T10:22:23.053Z,1015.08
2016-05-24T10:23:23.088Z,1015.15
2016-05-24T10:24:23.108Z,1015.14
2016-05-24T10:25:23.142Z,1015.12
2016-05-24T10:26:23.161Z,1015.17
2016-05-24T10:27:23.197Z,1015.15
2016-05-24T10:28:23.231Z,1015.16
2016-05-24T10:29:23.250Z,1015.17
2016-05-24T10:30:23.268Z,1015.2
2016-05-24T10:31:23.302Z,1015.24
2016-05-24T10:32:23.321Z,1015.22
2016-05-24T10:33:23.355Z,1015.22
2016-05-24T10:34:23.451Z,1015.22
2016-05-24T10:35:23.407Z,1015.24
2016-05-24T10:36:23.440Z,1015.25
2016-05-24T10:37:24.303Z,1015.26
2016-05-24T10:38:23.493Z,1015.24
2016-05-24T10:39:23.512Z,1015.24
2016-05-24T10:40:23.545Z,1015.24
2016-05-24T10:41:23.564Z,1015.25
2016-05-24T10:42:24.864Z,1015.27
2016-05-24T10:43:23.616Z,1015.25
2016-05-24T10:44:23.650Z,1015.28
2016-05-24T10:45:23.825Z,1015.23
2016-05-24T10:46:23.702Z,1015.26
2016-05-24T10:47:23.752Z,1015.25
2016-05-24T10:48:23.755Z,1015.25
2016-05-24T10:49:23.789Z,1015.26
2016-05-24T10:50:23.807Z,1015.22
2016-05-24T10:51:23.841Z,1015.23
2016-05-24T10:52:24.469Z,1015.23
2016-05-24T10:53:23.893Z,1015.26
2016-05-24T10:54:23.911Z,1015.28
2016-05-24T10:55:23.945Z,1015.28
2016-05-24T10:56:23.963Z,1015.27
2016-05-24T10:57:23.997Z,1015.3
2016-05-24T10:58:24.032Z,1015.27
2016-05-24T10:59:24.049Z,1015.26
2016-05-24T11:00:25.740Z,1015.27
2016-05-24T11:01:24.101Z,1015.26
2016-05-24T11:02:24.355Z,1015.28
2016-05-24T11:03:24.154Z,1015.19
2016-05-24T11:04:24.188Z,1015.22
2016-05-24T11:05:24.207Z,1015.17
2016-05-24T11:06:24.240Z,1015.17
2016-05-24T11:07:24.618Z,1015.13
2016-05-24T11:08:24.293Z,1015.07
2016-05-24T11:09:24.326Z,1015.11
2016-05-24T11:10:24.345Z,1015.05
2016-05-24T11:11:24.379Z,1015.07
2016-05-24T11:12:24.928Z,1015.05
2016-05-24T11:13:24.431Z,1015.06
2016-05-24T11:14:24.449Z,1015.01
2016-05-24T11:15:24.546Z,1015.04
2016-05-24T11:16:24.517Z,1015.06
2016-05-24T11:17:24.535Z,1014.97
2016-05-24T11:18:24.570Z,1014.95
2016-05-24T11:19:24.588Z,1014.98
2016-05-24T11:20:24.622Z,1014.95
2016-05-24T11:21:24.641Z,1014.95
2016-05-24T11:22:24.674Z,1014.92
2016-05-24T11:23:24.692Z,1014.94
2016-05-24T11:24:24.727Z,1014.91
2016-05-24T11:25:24.760Z,1014.94
2016-05-24T11:26:24.779Z,1014.91
2016-05-24T11:27:24.797Z,1014.91
2016-05-24T11:28:24.830Z,1014.91
2016-05-24T11:29:24.865Z,1014.9
2016-05-24T11:30:24.883Z,1014.88
2016-05-24T11:31:24.918Z,1014.86
2016-05-24T11:32:24.935Z,1014.86
2016-05-24T11:33:24.969Z,1014.86
2016-05-24T11:34:25.004Z,1014.81
2016-05-24T11:35:25.022Z,1014.8
2016-05-24T11:36:25.056Z,1014.81
2016-05-24T11:37:25.073Z,1014.78
2016-05-24T11:38:25.107Z,1014.8
2016-05-24T11:39:25.126Z,1014.82
2016-05-24T11:40:25.176Z,1014.79
2016-05-24T11:41:25.178Z,1014.81
2016-05-24T11:42:25.212Z,1014.79
2016-05-24T11:43:25.231Z,1014.79
2016-05-24T11:44:25.264Z,1014.85
2016-05-24T11:45:25.283Z,1014.82
2016-05-24T11:46:25.316Z,1014.81
2016-05-24T11:47:25.335Z,1014.85
2016-05-24T11:48:25.369Z,1014.83
2016-05-24T11:49:25.403Z,1014.8
2016-05-24T11:50:25.531Z,1014.81
2016-05-24T11:51:25.456Z,1014.8
2016-05-24T11:52:25.473Z,1014.8
2016-05-24T11:53:25.508Z,1014.78
2016-05-24T11:54:25.526Z,1014.82
2016-05-24T11:55:25.560Z,1014.85
2016-05-24T11:56:25.578Z,1014.77
2016-05-24T11:57:25.612Z,1014.74
2016-05-24T11:58:25.630Z,1014.71
2016-05-24T11:59:25.680Z,1014.74
2016-05-24T12:00:25.682Z,1014.71
2016-05-24T12:01:25.716Z,1014.68
2016-05-24T12:02:25.751Z,1014.67
2016-05-24T12:03:25.768Z,1014.69
2016-05-24T12:04:25.818Z,1014.67
2016-05-24T12:05:25.821Z,1014.67
2016-05-24T12:06:25.855Z,1014.69
2016-05-24T12:07:25.873Z,1014.71
2016-05-24T12:08:25.907Z,1014.66